createdAt,value
2019-04-30T00:01:17.022Z,9.54
2019-04-30T00:04:45.146Z,9.48
2019-04-30T00:07:58.416Z,9.38
2019-04-30T00:11:06.431Z,9.25
2019-04-30T00:14:15.562Z,9.29
2019-04-30T00:17:25.644Z,9.31
2019-04-30T00:20:37.043Z,9.30
2019-04-30T00:23:43.294Z,9.27
2019-04-30T00:26:52.594Z,9.31
2019-04-30T00:30:07.331Z,9.29
2019-04-30T00:33:15.285Z,9.27
2019-04-30T00:36:22.067Z,9.25
2019-04-30T00:39:30.811Z,9.21
2019-04-30T00:42:40.912Z,9.24
2019-04-30T00:45:49.608Z,9.21
2019-04-30T00:49:08.793Z,9.14
2019-04-30T00:52:08.513Z,9.10
2019-04-30T00:55:17.144Z,9.06
2019-04-30T00:58:36.065Z,9.06
2019-04-30T01:02:02.961Z,8.82
2019-04-30T01:05:16.136Z,8.84
2019-04-30T01:08:27.616Z,8.83
2019-04-30T01:11:35.524Z,8.89
2019-04-30T01:14:54.497Z,8.89
2019-04-30T01:18:03.064Z,8.81
2019-04-30T01:21:13.309Z,8.80
2019-04-30T01:24:23.488Z,8.75
2019-04-30T01:27:34.024Z,8.69
2019-04-30T01:30:43.353Z,8.68
2019-04-30T01:33:51.978Z,8.68
2019-04-30T01:37:00.603Z,8.59
2019-04-30T01:40:13.579Z,8.60
2019-04-30T01:43:23.193Z,8.41
2019-04-30T01:46:30.269Z,8.25
2019-04-30T01:49:42.891Z,8.27
2019-04-30T01:52:55.474Z,8.37
2019-04-30T01:56:21.955Z,8.33
2019-04-30T01:59:49.560Z,8.38
2019-04-30T02:02:59.259Z,8.34
2019-04-30T02:06:19.716Z,8.14
2019-04-30T02:09:28.753Z,8.05
2019-04-30T02:12:39.265Z,8.05
2019-04-30T02:15:49.274Z,8.02
2019-04-30T02:18:59.685Z,8.12
2019-04-30T02:22:09.522Z,8.14
2019-04-30T02:25:19.553Z,8.19
2019-04-30T02:28:29.017Z,8.20
2019-04-30T02:31:40.567Z,8.17
2019-04-30T02:34:55.799Z,8.18
2019-04-30T02:38:34.459Z,8.14
2019-04-30T02:41:44.380Z,8.09
2019-04-30T02:45:04.251Z,7.98
2019-04-30T02:48:13.412Z,7.85
2019-04-30T02:51:25.370Z,7.91
2019-04-30T02:54:35.550Z,7.90
2019-04-30T02:57:44.389Z,7.87
2019-04-30T03:00:53.101Z,7.88
2019-04-30T03:04:01.829Z,7.91
2019-04-30T03:07:10.473Z,7.91
2019-04-30T03:10:19.860Z,7.95
2019-04-30T03:13:29.947Z,7.96
2019-04-30T03:17:00.103Z,7.94
2019-04-30T03:20:45.989Z,7.87
2019-04-30T03:24:12.978Z,7.71
2019-04-30T03:27:24.586Z,7.69
2019-04-30T03:30:32.507Z,7.70
2019-04-30T03:33:42.611Z,7.68
2019-04-30T03:37:02.302Z,7.74
2019-04-30T03:40:13.148Z,7.68
2019-04-30T03:43:22.115Z,7.67
2019-04-30T03:46:30.712Z,7.73
2019-04-30T03:49:40.259Z,7.78
2019-04-30T03:53:00.781Z,7.70
2019-04-30T03:56:09.547Z,7.64
2019-04-30T03:59:19.954Z,7.48
2019-04-30T04:02:42.006Z,7.36
2019-04-30T04:05:55.707Z,7.35
2019-04-30T04:09:14.494Z,7.40
2019-04-30T04:12:44.625Z,7.57
2019-04-30T04:15:59.781Z,7.50
2019-04-30T04:19:19.621Z,7.44
2019-04-30T04:22:26.269Z,7.40
2019-04-30T04:25:35.005Z,7.49
2019-04-30T04:28:43.707Z,7.64
2019-04-30T04:31:52.442Z,7.37
2019-04-30T04:35:01.162Z,7.14
2019-04-30T04:38:12.261Z,7.14
2019-04-30T04:41:19.803Z,7.17
2019-04-30T04:44:29.496Z,7.25
2019-04-30T04:47:40.178Z,7.48
2019-04-30T04:50:50.191Z,7.54
2019-04-30T04:54:03.137Z,7.68
2019-04-30T04:57:17.653Z,7.78
2019-04-30T05:00:22.648Z,7.76
2019-04-30T05:03:34.419Z,7.78
2019-04-30T05:06:46.176Z,7.80
2019-04-30T05:09:54.790Z,7.66
2019-04-30T05:13:13.793Z,7.75
2019-04-30T05:16:22.469Z,7.84
2019-04-30T05:19:31.210Z,7.83
2019-04-30T05:22:41.499Z,7.90
2019-04-30T05:25:50.157Z,8.00
2019-04-30T05:28:59.440Z,8.14
2019-04-30T05:32:19.686Z,8.22
2019-04-30T05:35:31.110Z,8.20
2019-04-30T05:38:41.146Z,8.30
2019-04-30T05:41:49.897Z,8.28
2019-04-30T05:44:59.264Z,8.45
2019-04-30T05:48:08.949Z,8.57
2019-04-30T05:51:19.383Z,8.45
2019-04-30T05:54:29.150Z,8.56
2019-04-30T05:57:52.427Z,8.67
2019-04-30T06:00:49.918Z,8.77
2019-04-30T06:03:59.475Z,8.94
2019-04-30T06:07:08.610Z,9.08
2019-04-30T06:10:39.739Z,9.11
2019-04-30T06:14:04.267Z,9.17
2019-04-30T06:17:15.434Z,9.28
2019-04-30T06:20:24.232Z,9.31
2019-04-30T06:23:32.876Z,9.44
2019-04-30T06:26:41.626Z,9.65
2019-04-30T06:29:51.753Z,9.92
2019-04-30T06:33:02.449Z,10.17
2019-04-30T06:36:12.629Z,10.26
2019-04-30T06:39:21.421Z,10.51
2019-04-30T06:42:30.428Z,10.64
2019-04-30T06:45:38.983Z,10.79
2019-04-30T06:48:50.846Z,11.00
2019-04-30T06:51:58.822Z,11.46
2019-04-30T06:55:09.437Z,11.70
2019-04-30T06:58:29.141Z,11.69
2019-04-30T07:01:38.850Z,11.99
2019-04-30T07:04:49.111Z,12.40
2019-04-30T07:08:15.960Z,12.90
2019-04-30T07:11:39.091Z,13.40
2019-04-30T07:14:49.362Z,13.71
2019-04-30T07:17:59.192Z,13.95
2019-04-30T07:21:08.735Z,14.16
2019-04-30T07:24:20.783Z,14.58
2019-04-30T07:27:31.938Z,15.19
2019-04-30T07:30:39.497Z,15.60
2019-04-30T07:33:53.087Z,15.58
2019-04-30T07:37:11.817Z,15.62
2019-04-30T07:40:09.972Z,15.50
2019-04-30T07:43:29.021Z,15.58
2019-04-30T07:46:41.084Z,15.59
2019-04-30T07:49:52.902Z,15.65
2019-04-30T07:53:05.658Z,16.06
2019-04-30T07:56:24.104Z,16.39
2019-04-30T07:59:20.768Z,16.69
2019-04-30T08:02:36.731Z,17.14
2019-04-30T08:05:43.963Z,17.52
2019-04-30T08:08:57.299Z,17.90
2019-04-30T08:12:22.243Z,18.07
2019-04-30T08:15:24.788Z,17.61
2019-04-30T08:18:34.529Z,17.35
2019-04-30T08:21:54.714Z,17.27
2019-04-30T08:25:03.277Z,17.17
2019-04-30T08:28:11.971Z,17.22
2019-04-30T08:31:21.986Z,17.38
2019-04-30T08:34:41.016Z,17.51
2019-04-30T08:37:49.878Z,17.70
2019-04-30T08:41:00.762Z,17.89
2019-04-30T08:44:09.386Z,18.15
2019-04-30T08:47:20.948Z,18.22
2019-04-30T08:50:29.674Z,18.27
2019-04-30T08:53:49.241Z,18.31
2019-04-30T08:56:59.510Z,18.17
2019-04-30T09:00:11.844Z,18.22
2019-04-30T09:03:21.594Z,18.20
2019-04-30T09:06:30.634Z,18.18
2019-04-30T09:09:39.449Z,18.15
2019-04-30T09:12:51.893Z,18.11
2019-04-30T09:15:59.595Z,17.93
2019-04-30T09:19:09.775Z,17.92
2019-04-30T09:22:19.493Z,18.05
2019-04-30T09:25:28.874Z,18.13
2019-04-30T09:28:49.421Z,18.15
2019-04-30T09:31:59.459Z,18.14
2019-04-30T09:35:09.569Z,18.11
2019-04-30T09:38:19.526Z,18.19
2019-04-30T09:41:28.841Z,18.25
2019-04-30T09:44:39.011Z,18.31
2019-04-30T09:47:47.832Z,18.34
2019-04-30T09:50:56.915Z,18.35
2019-04-30T09:54:06.676Z,18.42
2019-04-30T09:57:15.713Z,18.57
2019-04-30T10:00:24.771Z,18.61
2019-04-30T10:03:34.263Z,18.71
2019-04-30T10:06:43.527Z,18.84
2019-04-30T10:10:02.876Z,18.98
2019-04-30T10:13:11.439Z,19.03
2019-04-30T10:16:33.332Z,19.62
2019-04-30T10:19:42.003Z,20.37
2019-04-30T10:22:50.644Z,21.07
2019-04-30T10:25:59.473Z,21.40
2019-04-30T10:29:08.311Z,21.29
2019-04-30T10:32:18.595Z,20.96
2019-04-30T10:35:28.574Z,20.91
2019-04-30T10:38:39.262Z,20.67
2019-04-30T10:41:47.778Z,20.98
2019-04-30T10:45:00.019Z,21.26
2019-04-30T10:48:06.828Z,21.65
2019-04-30T10:51:16.689Z,21.83
2019-04-30T10:54:28.917Z,21.60
2019-04-30T10:57:37.343Z,21.60
2019-04-30T11:00:47.081Z,21.47
2019-04-30T11:03:55.714Z,21.24
2019-04-30T11:07:04.748Z,21.30
2019-04-30T11:10:13.475Z,21.08
2019-04-30T11:13:22.231Z,21.20
2019-04-30T11:16:30.805Z,21.21
2019-04-30T11:19:39.608Z,21.31
2019-04-30T11:22:48.671Z,21.34
2019-04-30T11:25:59.635Z,21.36
2019-04-30T11:29:07.775Z,21.33
2019-04-30T11:32:22.630Z,21.30
2019-04-30T11:35:41.472Z,21.58
2019-04-30T11:38:50.181Z,21.59
2019-04-30T11:42:03.836Z,21.86
2019-04-30T11:45:15.228Z,21.89
2019-04-30T11:48:23.749Z,21.93
2019-04-30T11:51:32.482Z,21.95
2019-04-30T11:54:54.322Z,22.10
2019-04-30T11:58:02.831Z,22.22
2019-04-30T12:01:15.919Z,22.12
2019-04-30T12:04:24.569Z,22.20
2019-04-30T12:07:59.772Z,22.18
2019-04-30T12:11:31.309Z,22.33
2019-04-30T12:14:39.934Z,22.34
2019-04-30T12:17:48.714Z,22.46
2019-04-30T12:20:58.711Z,22.51
2019-04-30T12:24:07.348Z,22.33
2019-04-30T12:27:26.337Z,22.64
2019-04-30T12:30:36.094Z,22.82
2019-04-30T12:33:44.923Z,23.17
2019-04-30T12:36:53.531Z,23.97
2019-04-30T12:40:02.299Z,24.92
2019-04-30T12:43:10.997Z,25.70
2019-04-30T12:46:21.270Z,26.11
2019-04-30T12:49:46.608Z,26.94
2019-04-30T12:52:59.654Z,27.29
2019-04-30T12:56:38.083Z,27.96
2019-04-30T12:59:46.877Z,27.96
2019-04-30T13:02:55.459Z,27.73
2019-04-30T13:06:06.092Z,27.23
2019-04-30T13:09:15.924Z,27.00
2019-04-30T13:12:25.579Z,25.99
2019-04-30T13:15:34.413Z,25.85
2019-04-30T13:18:44.370Z,25.63
2019-04-30T13:21:52.952Z,25.48
2019-04-30T13:25:12.867Z,25.22
2019-04-30T13:28:23.220Z,24.90
2019-04-30T13:31:31.821Z,23.49
2019-04-30T13:34:48.694Z,23.60
2019-04-30T13:38:07.301Z,23.55
2019-04-30T13:41:34.853Z,23.37
2019-04-30T13:44:45.224Z,23.25
2019-04-30T13:47:53.965Z,23.01
2019-04-30T13:51:02.690Z,22.75
2019-04-30T13:54:11.567Z,22.59
2019-04-30T13:57:34.082Z,22.64
2019-04-30T14:00:41.485Z,22.32
2019-04-30T14:03:59.022Z,22.39
2019-04-30T14:07:18.780Z,22.34
2019-04-30T14:10:29.429Z,22.19
2019-04-30T14:13:39.821Z,21.94
2019-04-30T14:16:48.554Z,21.92
2019-04-30T14:19:55.844Z,21.77
2019-04-30T14:23:05.977Z,21.14
2019-04-30T14:26:19.275Z,21.29
2019-04-30T14:29:25.616Z,21.43
2019-04-30T14:32:34.255Z,21.42
2019-04-30T14:35:42.906Z,21.54
2019-04-30T14:38:51.463Z,21.79
2019-04-30T14:42:02.205Z,21.74
2019-04-30T14:45:37.216Z,21.74
2019-04-30T14:48:51.201Z,21.43
2019-04-30T14:52:00.780Z,21.23
2019-04-30T14:55:29.356Z,20.77
2019-04-30T14:59:13.572Z,20.44
2019-04-30T15:02:30.305Z,20.46
2019-04-30T15:05:48.187Z,20.47
2019-04-30T15:08:49.516Z,20.00
2019-04-30T15:11:58.677Z,20.03
2019-04-30T15:15:09.392Z,19.91
2019-04-30T15:18:29.029Z,20.04
2019-04-30T15:21:36.412Z,19.96
2019-04-30T15:24:59.134Z,20.00
2019-04-30T15:28:17.638Z,19.60
2019-04-30T15:31:26.602Z,19.59
2019-04-30T15:34:35.386Z,19.47
2019-04-30T15:37:44.320Z,19.42
2019-04-30T15:41:03.697Z,19.37
2019-04-30T15:44:45.422Z,19.29
2019-04-30T15:47:53.308Z,19.21
2019-04-30T15:51:28.176Z,19.23
2019-04-30T15:54:36.868Z,19.04
2019-04-30T15:58:03.703Z,18.92
2019-04-30T16:02:53.435Z,18.89
2019-04-30T16:05:54.569Z,18.77
2019-04-30T16:09:05.813Z,18.63
2019-04-30T16:12:50.536Z,18.75
2019-04-30T16:16:19.210Z,18.88
2019-04-30T16:19:28.807Z,18.79
2019-04-30T16:22:39.974Z,18.70
2019-04-30T16:25:48.821Z,18.52
2019-04-30T16:28:58.613Z,18.53
2019-04-30T16:32:09.273Z,18.53
2019-04-30T16:35:19.719Z,18.50
2019-04-30T16:38:28.936Z,18.43
2019-04-30T16:41:49.572Z,18.44
2019-04-30T16:45:00.558Z,18.35
2019-04-30T16:48:09.827Z,18.29
2019-04-30T16:51:19.423Z,18.03
2019-04-30T16:54:29.233Z,17.86
2019-04-30T16:57:39.648Z,17.89
2019-04-30T17:00:49.266Z,17.78
2019-04-30T17:04:39.044Z,17.87
2019-04-30T17:08:13.837Z,17.62
2019-04-30T17:11:38.742Z,17.42
2019-04-30T17:14:49.281Z,17.49
2019-04-30T17:17:58.663Z,17.44
2019-04-30T17:21:09.739Z,17.45
2019-04-30T17:24:19.394Z,17.40
2019-04-30T17:27:29.367Z,17.41
2019-04-30T17:30:39.299Z,17.14
2019-04-30T17:33:48.376Z,17.14
2019-04-30T17:36:59.043Z,17.04
2019-04-30T17:40:19.430Z,17.06
2019-04-30T17:43:28.009Z,16.81
2019-04-30T17:46:38.534Z,16.66
2019-04-30T17:49:48.437Z,16.74
2019-04-30T17:53:09.685Z,16.84
2019-04-30T17:56:18.390Z,16.71
2019-04-30T17:59:27.087Z,16.57
2019-04-30T18:02:35.838Z,16.43
2019-04-30T18:05:46.374Z,16.42
2019-04-30T18:08:56.122Z,16.29
2019-04-30T18:12:04.750Z,16.09
2019-04-30T18:15:18.524Z,16.04
2019-04-30T18:18:33.352Z,15.84
2019-04-30T18:22:10.772Z,15.81
2019-04-30T18:25:30.830Z,15.65
2019-04-30T18:28:38.009Z,15.57
2019-04-30T18:31:46.612Z,15.41
2019-04-30T18:34:55.199Z,15.37
2019-04-30T18:38:03.770Z,15.31
2019-04-30T18:41:12.440Z,15.16
2019-04-30T18:44:20.960Z,15.08
2019-04-30T18:47:39.994Z,15.05
2019-04-30T18:50:59.067Z,14.64
2019-04-30T18:54:07.707Z,14.55
2019-04-30T18:57:16.349Z,14.48
2019-04-30T19:00:39.532Z,14.39
2019-04-30T19:03:49.238Z,14.37
2019-04-30T19:07:01.543Z,14.27
2019-04-30T19:10:19.957Z,14.25
2019-04-30T19:13:47.241Z,14.20
2019-04-30T19:17:19.457Z,14.07
2019-04-30T19:20:46.734Z,13.95
2019-04-30T19:24:08.627Z,14.00
2019-04-30T19:27:18.650Z,13.77
2019-04-30T19:30:39.023Z,13.75
2019-04-30T19:33:48.946Z,13.67
2019-04-30T19:36:58.568Z,13.64
2019-04-30T19:40:18.990Z,13.66
2019-04-30T19:43:28.562Z,13.57
2019-04-30T19:46:48.767Z,13.53
2019-04-30T19:49:59.493Z,13.37
2019-04-30T19:53:10.063Z,13.29
2019-04-30T19:56:20.603Z,13.35
2019-04-30T19:59:29.471Z,13.30
2019-04-30T20:02:48.727Z,13.12
2019-04-30T20:06:09.033Z,13.15
2019-04-30T20:09:19.379Z,13.10
2019-04-30T20:12:29.041Z,13.04
2019-04-30T20:15:39.291Z,12.96
2019-04-30T20:18:49.105Z,12.93
2019-04-30T20:21:59.503Z,12.70
2019-04-30T20:25:09.207Z,12.64
2019-04-30T20:28:38.581Z,12.63
2019-04-30T20:31:38.840Z,12.49
2019-04-30T20:34:48.925Z,12.48
2019-04-30T20:38:20.039Z,12.38
2019-04-30T20:41:29.294Z,12.41
2019-04-30T20:44:38.959Z,12.41
2019-04-30T20:47:49.589Z,12.19
2019-04-30T20:51:01.054Z,12.26
2019-04-30T20:54:09.139Z,12.19
2019-04-30T20:57:19.848Z,12.22
2019-04-30T21:00:28.000Z,12.22
2019-04-30T21:03:36.516Z,12.09
2019-04-30T21:06:45.034Z,12.16
2019-04-30T21:10:04.034Z,12.04
2019-04-30T21:13:12.701Z,12.16
2019-04-30T21:16:21.224Z,12.20
2019-04-30T21:19:29.945Z,12.11
2019-04-30T21:22:38.859Z,12.00
2019-04-30T21:25:49.153Z,11.81
2019-04-30T21:29:10.412Z,11.82
2019-04-30T21:32:32.757Z,11.69
2019-04-30T21:35:50.715Z,11.78
2019-04-30T21:38:59.505Z,11.73
2019-04-30T21:42:09.270Z,11.73
2019-04-30T21:45:18.436Z,11.79
2019-04-30T21:48:28.718Z,11.67
2019-04-30T21:51:40.000Z,11.63
2019-04-30T21:54:48.696Z,11.61
2019-04-30T21:57:59.258Z,11.57
2019-04-30T22:01:22.735Z,11.58
2019-04-30T22:04:41.890Z,11.74
2019-04-30T22:07:51.196Z,11.68
2019-04-30T22:11:10.224Z,11.81
2019-04-30T22:14:18.844Z,11.77
2019-04-30T22:17:29.180Z,11.79
2019-04-30T22:20:38.893Z,11.81
2019-04-30T22:23:47.501Z,11.75
2019-04-30T22:27:06.276Z,11.86
2019-04-30T22:30:15.056Z,11.83
2019-04-30T22:33:23.594Z,11.74
2019-04-30T22:36:38.650Z,11.75
2019-04-30T22:40:01.589Z,11.54
2019-04-30T22:43:10.262Z,11.58
2019-04-30T22:46:19.541Z,11.63
2019-04-30T22:49:28.259Z,11.62
2019-04-30T22:52:36.922Z,11.51
2019-04-30T22:55:45.440Z,11.48
2019-04-30T22:58:53.941Z,11.51
2019-04-30T23:02:34.835Z,11.58
2019-04-30T23:05:43.565Z,11.59
2019-04-30T23:08:52.185Z,11.59
2019-04-30T23:12:00.807Z,11.57
2019-04-30T23:15:10.714Z,11.59
2019-04-30T23:18:32.167Z,11.60
2019-04-30T23:21:40.335Z,11.38
2019-04-30T23:24:48.843Z,11.38
2019-04-30T23:27:57.399Z,11.34
2019-04-30T23:31:05.994Z,11.44
2019-04-30T23:34:18.077Z,11.40
2019-04-30T23:37:36.455Z,11.53
2019-04-30T23:40:50.620Z,11.42
2019-04-30T23:43:59.649Z,11.49
2019-04-30T23:47:08.168Z,11.52
2019-04-30T23:50:27.140Z,11.58
2019-04-30T23:53:35.971Z,11.56
2019-04-30T23:56:44.707Z,11.59
2019-04-30T23:59:53.366Z,11.47
